createdAt,value
2024-05-09T00:00:46.742Z,59.84
2024-05-09T00:06:09.736Z,57.17
2024-05-09T00:11:15.267Z,60.33
2024-05-09T00:16:18.007Z,66.86
2024-05-09T00:21:20.609Z,64.60
2024-05-09T00:26:24.265Z,60.08
2024-05-09T00:31:26.905Z,57.13
2024-05-09T00:36:29.530Z,60.07
2024-05-09T00:41:32.194Z,66.51
2024-05-09T00:46:34.922Z,63.83
2024-05-09T00:51:39.867Z,60.89
2024-05-09T00:56:42.879Z,58.35
2024-05-09T01:01:46.285Z,58.64
2024-05-09T01:06:49.093Z,61.61
2024-05-09T01:11:51.671Z,67.81
2024-05-09T01:16:54.704Z,64.85
2024-05-09T01:21:57.506Z,60.71
2024-05-09T01:27:00.066Z,58.01
2024-05-09T01:32:04.555Z,60.51
2024-05-09T01:37:07.378Z,66.92
2024-05-09T01:42:09.922Z,63.80
2024-05-09T01:47:12.688Z,59.25
2024-05-09T01:52:15.466Z,58.72
2024-05-09T01:57:18.188Z,62.10
2024-05-09T02:02:20.899Z,67.73
2024-05-09T02:07:23.558Z,63.50
2024-05-09T02:12:26.261Z,59.77
2024-05-09T02:17:29.083Z,58.33
2024-05-09T02:22:31.763Z,61.73
2024-05-09T02:27:34.311Z,67.56
2024-05-09T02:32:36.899Z,63.83
2024-05-09T02:37:39.555Z,60.07
2024-05-09T02:42:42.079Z,57.59
2024-05-09T02:47:44.822Z,61.23
2024-05-09T02:52:47.553Z,67.86
2024-05-09T02:57:50.104Z,64.39
2024-05-09T03:02:52.946Z,58.62
2024-05-09T03:07:55.754Z,59.03
2024-05-09T03:12:58.406Z,65.22
2024-05-09T03:18:01.605Z,65.50
2024-05-09T03:23:06.328Z,60.71
2024-05-09T03:28:11.561Z,57.38
2024-05-09T03:33:16.746Z,60.94
2024-05-09T03:38:19.831Z,67.51
2024-05-09T03:43:22.411Z,64.39
2024-05-09T03:48:25.083Z,58.79
2024-05-09T03:53:28.061Z,57.34
2024-05-09T03:58:30.599Z,60.16
2024-05-09T04:03:34.054Z,65.32
2024-05-09T04:08:37.586Z,61.75
2024-05-09T04:13:40.318Z,56.99
2024-05-09T04:18:42.955Z,58.73
2024-05-09T04:23:45.675Z,61.78
2024-05-09T04:28:48.377Z,67.30
2024-05-09T04:33:51.130Z,62.51
2024-05-09T04:38:53.769Z,56.85
2024-05-09T04:43:56.366Z,58.47
2024-05-09T04:48:58.994Z,60.05
2024-05-09T04:54:02.048Z,61.63
2024-05-09T04:59:04.635Z,67.61
2024-05-09T05:04:07.316Z,63.01
2024-05-09T05:09:09.861Z,56.78
2024-05-09T05:14:12.517Z,56.59
2024-05-09T05:19:17.141Z,58.91
2024-05-09T05:24:20.357Z,60.12
2024-05-09T05:29:23.289Z,61.02
2024-05-09T05:34:25.916Z,60.98
2024-05-09T05:39:28.694Z,64.65
2024-05-09T05:44:31.470Z,58.56
2024-05-09T05:49:34.497Z,52.90
2024-05-09T05:54:37.115Z,53.21
2024-05-09T05:59:40.403Z,54.15
2024-05-09T06:04:43.159Z,54.30
2024-05-09T06:09:48.197Z,54.07
2024-05-09T06:14:52.327Z,54.07
2024-05-09T06:19:55.079Z,54.15
2024-05-09T06:24:57.886Z,55.90
2024-05-09T06:30:00.479Z,54.29
2024-05-09T06:35:03.289Z,53.67
2024-05-09T06:40:07.588Z,53.59
2024-05-09T06:45:12.440Z,52.74
2024-05-09T06:50:23.266Z,51.90
2024-05-09T06:55:27.189Z,51.85
2024-05-09T07:00:35.968Z,51.29
2024-05-09T07:05:42.473Z,51.98
2024-05-09T07:10:45.648Z,49.25
2024-05-09T07:15:48.425Z,51.65
2024-05-09T07:20:51.244Z,49.27
2024-05-09T07:25:54.005Z,48.28
2024-05-09T07:30:56.666Z,47.29
2024-05-09T07:35:59.324Z,46.15
2024-05-09T07:41:02.077Z,47.16
2024-05-09T07:47:04.433Z,44.29
2024-05-09T07:56:35.024Z,45.22
2024-05-09T08:01:37.841Z,44.17
2024-05-09T08:06:40.511Z,44.52
2024-05-09T08:11:44.692Z,44.80
2024-05-09T08:16:47.392Z,43.49
2024-05-09T08:21:50.033Z,44.09
2024-05-09T08:26:52.739Z,41.86
2024-05-09T08:31:56.867Z,39.77
2024-05-09T08:37:03.814Z,41.23
2024-05-09T08:42:16.789Z,42.20
2024-05-09T08:47:19.450Z,39.98
2024-05-09T08:52:22.121Z,40.29
2024-05-09T08:57:26.024Z,39.54
2024-05-09T09:02:29.023Z,38.80
2024-05-09T09:07:33.420Z,39.57
2024-05-09T09:12:36.149Z,39.72
2024-05-09T09:17:38.977Z,39.19
2024-05-09T09:22:41.587Z,39.32
2024-05-09T09:27:44.348Z,38.92
2024-05-09T09:32:49.688Z,36.37
2024-05-09T09:37:53.830Z,38.71
2024-05-09T09:42:57.878Z,36.70
2024-05-09T09:48:01.840Z,37.40
2024-05-09T09:53:07.483Z,37.68
2024-05-09T09:58:13.214Z,36.93
2024-05-09T10:03:16.962Z,37.68
2024-05-09T10:08:21.979Z,38.48
2024-05-09T10:13:33.101Z,37.49
2024-05-09T10:18:37.112Z,36.48
2024-05-09T10:23:43.179Z,38.17
2024-05-09T10:28:45.834Z,37.03
2024-05-09T10:33:50.763Z,38.02
2024-05-09T10:38:55.106Z,38.09
2024-05-09T10:43:57.692Z,38.37
2024-05-09T10:49:04.241Z,37.49
2024-05-09T10:54:08.897Z,37.73
2024-05-09T10:59:12.849Z,38.20
2024-05-09T11:04:15.482Z,37.16
2024-05-09T11:09:18.273Z,35.92
2024-05-09T11:14:21.034Z,36.00
2024-05-09T11:19:23.924Z,35.92
2024-05-09T11:24:26.763Z,36.65
2024-05-09T11:29:40.200Z,35.89
2024-05-09T11:34:42.943Z,36.29
2024-05-09T11:39:45.753Z,36.78
2024-05-09T11:44:48.448Z,35.99
2024-05-09T11:49:51.927Z,36.47
2024-05-09T11:54:54.601Z,35.91
2024-05-09T11:59:57.318Z,36.03
2024-05-09T12:05:00.027Z,37.32
2024-05-09T12:10:03.469Z,37.26
2024-05-09T12:15:07.780Z,37.91
2024-05-09T12:20:20.925Z,37.28
2024-05-09T12:25:28.274Z,36.42
2024-05-09T12:30:36.737Z,36.51
2024-05-09T12:35:44.608Z,37.37
2024-05-09T12:40:49.344Z,37.15
2024-05-09T12:45:52.106Z,36.35
2024-05-09T12:50:57.313Z,35.45
2024-05-09T12:56:02.420Z,35.25
2024-05-09T13:01:06.544Z,36.11
2024-05-09T13:06:10.908Z,36.75
2024-05-09T13:11:14.142Z,35.97
2024-05-09T13:16:16.957Z,35.44
2024-05-09T13:21:19.745Z,36.25
2024-05-09T13:26:22.365Z,35.18
2024-05-09T13:31:25.040Z,37.36
2024-05-09T13:36:28.107Z,37.91
2024-05-09T13:41:30.761Z,32.83
2024-05-09T13:46:33.543Z,33.97
2024-05-09T13:51:36.204Z,32.87
2024-05-09T13:56:39.236Z,32.80
2024-05-09T14:01:41.987Z,32.78
2024-05-09T14:06:44.755Z,33.58
2024-05-09T14:11:47.594Z,32.02
2024-05-09T14:16:50.327Z,32.11
2024-05-09T14:21:52.937Z,31.46
2024-05-09T14:26:56.195Z,30.63
2024-05-09T14:31:58.825Z,31.36
2024-05-09T14:37:01.503Z,28.99
2024-05-09T14:42:04.555Z,27.63
2024-05-09T14:47:07.455Z,26.30
2024-05-09T14:52:10.259Z,25.60
2024-05-09T14:57:13.247Z,26.12
2024-05-09T15:02:15.814Z,25.31
2024-05-09T15:07:19.100Z,24.51
2024-05-09T15:12:21.774Z,24.95
2024-05-09T15:17:24.428Z,26.74
2024-05-09T15:22:26.970Z,24.26
2024-05-09T15:27:30.186Z,23.55
2024-05-09T15:32:33.005Z,24.20
2024-05-09T15:37:35.910Z,23.76
2024-05-09T15:42:41.692Z,25.58
2024-05-09T15:47:45.767Z,27.21
2024-05-09T15:52:49.660Z,28.02
2024-05-09T15:57:52.284Z,27.27
2024-05-09T16:02:55.002Z,26.22
2024-05-09T16:07:58.064Z,25.08
2024-05-09T16:13:00.948Z,25.34
2024-05-09T16:18:04.006Z,26.50
2024-05-09T16:23:07.596Z,27.05
2024-05-09T16:28:11.254Z,29.13
2024-05-09T16:33:16.754Z,30.95
2024-05-09T16:38:21.872Z,31.62
2024-05-09T16:43:24.523Z,33.31
2024-05-09T16:48:27.219Z,33.68
2024-05-09T16:53:29.695Z,35.84
2024-05-09T16:58:32.433Z,36.11
2024-05-09T17:03:35.365Z,36.43
2024-05-09T17:08:38.156Z,36.38
2024-05-09T17:13:42.774Z,37.02
2024-05-09T17:18:48.302Z,37.19
2024-05-09T17:23:54.138Z,38.71
2024-05-09T17:28:57.059Z,38.88
2024-05-09T17:33:59.770Z,40.11
2024-05-09T17:39:02.644Z,39.95
2024-05-09T17:44:06.342Z,40.32
2024-05-09T17:49:09.111Z,41.41
2024-05-09T17:54:11.747Z,42.35
2024-05-09T17:59:14.273Z,42.61
2024-05-09T18:04:17.750Z,43.07
2024-05-09T18:09:20.837Z,43.64
2024-05-09T18:14:23.457Z,44.50
2024-05-09T18:19:26.243Z,44.60
2024-05-09T18:24:28.902Z,46.59
2024-05-09T18:29:31.611Z,47.75
2024-05-09T18:34:34.223Z,50.09
2024-05-09T18:39:36.880Z,50.12
2024-05-09T18:44:39.555Z,49.87
2024-05-09T18:49:42.319Z,50.26
2024-05-09T18:54:45.010Z,49.45
2024-05-09T18:59:47.740Z,50.52
2024-05-09T19:04:51.064Z,51.32
2024-05-09T19:09:53.800Z,51.85
2024-05-09T19:14:56.389Z,53.00
2024-05-09T19:19:59.040Z,52.86
2024-05-09T19:25:01.632Z,53.85
2024-05-09T19:30:11.895Z,57.17
2024-05-09T19:35:19.756Z,56.03
2024-05-09T19:40:29.001Z,55.91
2024-05-09T19:45:35.643Z,56.54
2024-05-09T19:50:43.250Z,56.53
2024-05-09T19:55:50.615Z,56.38
2024-05-09T20:00:53.276Z,55.19
2024-05-09T20:05:55.959Z,56.21
2024-05-09T20:10:58.712Z,57.20
2024-05-09T20:16:01.644Z,58.69
2024-05-09T20:21:04.443Z,56.24
2024-05-09T20:26:08.173Z,57.27
2024-05-09T20:31:10.794Z,58.40
2024-05-09T20:36:13.447Z,58.34
2024-05-09T20:41:16.048Z,58.36
2024-05-09T20:46:18.954Z,60.25
2024-05-09T20:51:21.805Z,60.16
2024-05-09T20:56:24.640Z,60.28
2024-05-09T21:01:27.355Z,66.92
2024-05-09T21:06:30.034Z,64.95
2024-05-09T21:11:32.629Z,56.41
2024-05-09T21:16:35.330Z,55.85
2024-05-09T21:21:41.745Z,57.38
2024-05-09T21:26:44.415Z,59.56
2024-05-09T21:31:47.036Z,59.60
2024-05-09T21:36:49.661Z,59.00
2024-05-09T21:41:52.312Z,59.07
2024-05-09T21:46:55.100Z,59.84
2024-05-09T21:51:57.840Z,59.95
2024-05-09T21:57:00.424Z,66.60
2024-05-09T22:02:03.266Z,63.14
2024-05-09T22:07:06.659Z,56.79
2024-05-09T22:12:09.511Z,57.40
2024-05-09T22:17:12.248Z,58.76
2024-05-09T22:22:15.072Z,60.28
2024-05-09T22:27:17.972Z,66.67
2024-05-09T22:32:20.718Z,63.85
2024-05-09T22:37:23.474Z,58.80
2024-05-09T22:42:27.051Z,56.37
2024-05-09T22:47:29.724Z,58.68
2024-05-09T22:52:32.444Z,60.06
2024-05-09T22:57:35.099Z,61.49
2024-05-09T23:02:37.912Z,67.39
2024-05-09T23:07:40.584Z,63.76
2024-05-09T23:12:43.305Z,57.55
2024-05-09T23:17:46.068Z,56.93
2024-05-09T23:22:48.786Z,58.21
2024-05-09T23:27:51.430Z,59.60
2024-05-09T23:32:54.287Z,60.71
2024-05-09T23:37:57.147Z,61.10
2024-05-09T23:42:59.796Z,67.73
2024-05-09T23:48:02.837Z,64.08
2024-05-09T23:53:07.774Z,56.03
2024-05-09T23:58:11.795Z,56.13
